createdAt,value
2022-08-05T00:02:17.113Z,21.48
2022-08-05T00:06:02.612Z,21.42
2022-08-05T00:08:35.475Z,21.42
2022-08-05T00:11:35.029Z,21.41
2022-08-05T00:14:38.367Z,21.41
2022-08-05T00:17:46.535Z,21.48
2022-08-05T00:20:52.085Z,21.51
2022-08-05T00:24:10.575Z,21.21
2022-08-05T00:27:10.459Z,21.14
2022-08-05T00:30:11.344Z,21.11
2022-08-05T00:34:55.586Z,21.05
2022-08-05T00:37:13.194Z,20.84
2022-08-05T00:39:36.933Z,20.79
2022-08-05T00:42:36.688Z,20.66
2022-08-05T00:45:46.027Z,20.50
2022-08-05T00:48:55.397Z,20.61
2022-08-05T00:52:04.988Z,20.51
2022-08-05T00:55:13.420Z,20.62
2022-08-05T00:58:27.238Z,20.62
2022-08-05T01:01:42.073Z,20.74
2022-08-05T01:04:30.205Z,20.69
2022-08-05T01:07:37.773Z,20.39
2022-08-05T01:10:51.512Z,20.30
2022-08-05T01:13:59.119Z,20.18
2022-08-05T01:16:53.836Z,20.20
2022-08-05T01:20:03.594Z,20.05
2022-08-05T01:23:15.045Z,19.97
2022-08-05T01:26:12.122Z,19.94
2022-08-05T01:29:22.931Z,20.02
2022-08-05T01:32:20.361Z,19.93
2022-08-05T01:35:52.148Z,19.90
2022-08-05T01:38:33.733Z,19.97
2022-08-05T01:41:44.440Z,19.97
2022-08-05T01:44:54.193Z,19.90
2022-08-05T01:48:02.397Z,19.90
2022-08-05T01:51:12.365Z,19.97
2022-08-05T01:54:25.566Z,19.98
2022-08-05T01:58:29.202Z,20.05
2022-08-05T02:00:30.989Z,20.12
2022-08-05T02:03:38.529Z,20.15
2022-08-05T02:06:48.013Z,20.03
2022-08-05T02:09:56.254Z,19.84
2022-08-05T02:13:04.882Z,19.88
2022-08-05T02:16:10.455Z,19.95
2022-08-05T02:19:13.697Z,20.09
2022-08-05T02:22:26.812Z,20.06
2022-08-05T02:25:23.958Z,19.97
2022-08-05T02:28:38.162Z,19.93
2022-08-05T02:31:35.438Z,19.87
2022-08-05T02:34:42.881Z,19.84
2022-08-05T02:37:53.919Z,19.87
2022-08-05T02:40:51.043Z,19.78
2022-08-05T02:44:02.711Z,19.94
2022-08-05T02:47:03.306Z,19.97
2022-08-05T02:50:11.791Z,19.98
2022-08-05T02:53:19.856Z,20.00
2022-08-05T02:56:27.848Z,19.95
2022-08-05T02:59:27.732Z,19.93
2022-08-05T03:02:35.718Z,19.98
2022-08-05T03:06:57.014Z,20.00
2022-08-05T03:08:48.302Z,19.97
2022-08-05T03:11:54.521Z,19.86
2022-08-05T03:14:54.094Z,19.57
2022-08-05T03:18:04.426Z,19.46
2022-08-05T03:21:04.767Z,19.48
2022-08-05T03:24:14.789Z,19.46
2022-08-05T03:27:23.212Z,19.48
2022-08-05T03:30:30.320Z,19.43
2022-08-05T03:33:42.328Z,19.53
2022-08-05T03:36:36.162Z,19.57
2022-08-05T03:39:47.390Z,19.70
2022-08-05T03:42:51.752Z,19.78
2022-08-05T03:46:00.120Z,19.84
2022-08-05T03:49:08.119Z,19.94
2022-08-05T03:52:38.382Z,19.94
2022-08-05T03:56:05.517Z,20.00
2022-08-05T03:58:28.900Z,19.84
2022-08-05T04:01:36.628Z,19.79
2022-08-05T04:04:44.878Z,19.69
2022-08-05T04:07:58.501Z,19.66
2022-08-05T04:10:55.821Z,19.57
2022-08-05T04:14:04.004Z,19.60
2022-08-05T04:17:11.705Z,19.83
2022-08-05T04:20:19.907Z,19.98
2022-08-05T04:23:58.432Z,19.88
2022-08-05T04:26:33.495Z,19.76
2022-08-05T04:29:41.461Z,19.76
2022-08-05T04:32:49.375Z,19.65
2022-08-05T04:36:15.864Z,19.43
2022-08-05T04:39:02.923Z,19.33
2022-08-05T04:42:11.287Z,19.54
2022-08-05T04:45:23.075Z,19.43
2022-08-05T04:48:28.073Z,19.28
2022-08-05T04:51:25.786Z,19.24
2022-08-05T04:54:27.584Z,19.36
2022-08-05T04:57:37.135Z,19.33
2022-08-05T05:00:45.625Z,19.36
2022-08-05T05:03:47.988Z,19.55
2022-08-05T05:06:57.598Z,19.53
2022-08-05T05:10:06.349Z,19.51
2022-08-05T05:13:14.282Z,19.51
2022-08-05T05:16:22.006Z,19.61
2022-08-05T05:19:26.771Z,19.69
2022-08-05T05:22:31.965Z,19.75
2022-08-05T05:25:41.051Z,19.84
2022-08-05T05:28:49.018Z,19.94
2022-08-05T05:31:56.964Z,20.13
2022-08-05T05:35:04.480Z,20.25
2022-08-05T05:38:14.450Z,20.33
2022-08-05T05:41:22.421Z,20.28
2022-08-05T05:44:36.699Z,20.27
2022-08-05T05:48:06.535Z,20.24
2022-08-05T05:50:41.124Z,20.38
2022-08-05T05:53:45.906Z,20.43
2022-08-05T05:56:47.303Z,20.47
2022-08-05T05:59:55.717Z,20.56
2022-08-05T06:03:40.691Z,20.74
2022-08-05T06:06:09.927Z,20.71
2022-08-05T06:09:24.818Z,20.62
2022-08-05T06:12:22.999Z,20.69
2022-08-05T06:15:25.502Z,20.77
2022-08-05T06:18:31.768Z,20.84
2022-08-05T06:21:36.078Z,20.77
2022-08-05T06:24:34.792Z,20.69
2022-08-05T06:28:12.093Z,20.65
2022-08-05T06:30:47.829Z,20.59
2022-08-05T06:34:05.986Z,20.56
2022-08-05T06:37:01.850Z,20.61
2022-08-05T06:40:10.072Z,20.51
2022-08-05T06:43:59.826Z,20.24
2022-08-05T06:46:23.353Z,20.09
2022-08-05T06:49:59.877Z,20.03
2022-08-05T06:52:38.106Z,19.98
2022-08-05T06:55:37.438Z,19.86
2022-08-05T06:58:46.814Z,19.91
2022-08-05T07:01:54.882Z,19.84
2022-08-05T07:05:03.205Z,19.80
2022-08-05T07:08:10.955Z,19.79
2022-08-05T07:11:22.408Z,19.79
2022-08-05T07:14:29.505Z,19.93
2022-08-05T07:17:59.332Z,19.91
2022-08-05T07:20:37.010Z,19.97
2022-08-05T07:23:36.044Z,19.66
2022-08-05T07:26:37.665Z,19.78
2022-08-05T07:30:23.911Z,19.98
2022-08-05T07:32:51.033Z,19.95
2022-08-05T07:36:02.809Z,20.16
2022-08-05T07:38:56.901Z,20.31
2022-08-05T07:42:13.932Z,20.43
2022-08-05T07:45:10.364Z,20.34
2022-08-05T07:49:01.615Z,20.31
2022-08-05T07:51:36.209Z,20.50
2022-08-05T07:54:30.749Z,20.61
2022-08-05T07:57:52.294Z,20.59
2022-08-05T08:00:36.379Z,20.42
2022-08-05T08:03:45.074Z,20.49
2022-08-05T08:06:52.826Z,20.56
2022-08-05T08:10:01.016Z,20.61
2022-08-05T08:13:09.396Z,20.86
2022-08-05T08:16:34.906Z,20.72
2022-08-05T08:20:21.051Z,20.90
2022-08-05T08:22:30.998Z,21.39
2022-08-05T08:25:59.809Z,21.66
2022-08-05T08:29:02.053Z,21.56
2022-08-05T08:31:51.304Z,21.53
2022-08-05T08:34:58.877Z,21.51
2022-08-05T08:38:07.575Z,21.54
2022-08-05T08:41:16.128Z,21.59
2022-08-05T08:45:19.144Z,21.64
2022-08-05T08:48:06.233Z,21.78
2022-08-05T08:51:03.722Z,21.82
2022-08-05T08:53:45.002Z,21.79
2022-08-05T08:56:53.855Z,21.99
2022-08-05T08:59:53.674Z,22.10
2022-08-05T09:03:04.166Z,22.06
2022-08-05T09:06:16.987Z,22.43
2022-08-05T09:09:16.508Z,22.59
2022-08-05T09:12:30.142Z,22.72
2022-08-05T09:15:27.390Z,22.46
2022-08-05T09:18:27.641Z,22.39
2022-08-05T09:22:21.973Z,22.44
2022-08-05T09:24:42.533Z,22.34
2022-08-05T09:28:03.800Z,22.29
2022-08-05T09:30:56.093Z,22.20
2022-08-05T09:34:03.949Z,22.46
2022-08-05T09:37:15.287Z,22.89
2022-08-05T09:40:13.565Z,22.83
2022-08-05T09:43:21.510Z,22.56
2022-08-05T09:46:30.129Z,22.06
2022-08-05T09:49:40.416Z,21.97
2022-08-05T09:52:45.233Z,22.02
2022-08-05T09:55:56.749Z,22.14
2022-08-05T09:58:56.737Z,22.25
2022-08-05T10:02:04.727Z,22.37
2022-08-05T10:05:13.231Z,22.32
2022-08-05T10:08:37.784Z,22.46
2022-08-05T10:11:29.647Z,22.43
2022-08-05T10:14:32.252Z,22.04
2022-08-05T10:17:42.403Z,21.75
2022-08-05T10:20:41.846Z,21.60
2022-08-05T10:23:59.772Z,21.54
2022-08-05T10:26:55.444Z,21.35
2022-08-05T10:30:41.423Z,21.21
2022-08-05T10:33:03.020Z,21.29
2022-08-05T10:36:11.589Z,21.24
2022-08-05T10:39:24.349Z,21.26
2022-08-05T10:42:32.393Z,21.19
2022-08-05T10:45:42.198Z,21.14
2022-08-05T10:48:39.528Z,21.23
2022-08-05T10:51:48.539Z,21.04
2022-08-05T10:54:46.906Z,20.91
2022-08-05T10:57:51.273Z,20.87
2022-08-05T11:00:55.086Z,20.79
2022-08-05T11:03:56.001Z,20.93
2022-08-05T11:07:04.322Z,21.05
2022-08-05T11:10:12.353Z,21.13
2022-08-05T11:13:20.464Z,21.34
2022-08-05T11:16:33.625Z,21.17
2022-08-05T11:20:09.878Z,21.04
2022-08-05T11:22:36.626Z,21.20
2022-08-05T11:26:06.221Z,21.45
2022-08-05T11:28:49.945Z,21.74
2022-08-05T11:32:00.674Z,21.85
2022-08-05T11:35:09.134Z,21.90
2022-08-05T11:38:30.134Z,21.98
2022-08-05T11:41:56.506Z,21.92
2022-08-05T11:44:40.298Z,21.98
2022-08-05T11:47:49.882Z,21.85
2022-08-05T11:50:34.177Z,21.56
2022-08-05T11:53:42.231Z,21.23
2022-08-05T11:56:52.095Z,21.04
2022-08-05T12:00:00.189Z,20.89
2022-08-05T12:03:08.270Z,20.68
2022-08-05T12:06:16.152Z,20.47
2022-08-05T12:09:24.726Z,20.41
2022-08-05T12:12:30.176Z,20.33
2022-08-05T12:15:40.336Z,20.20
2022-08-05T12:18:53.090Z,20.05
2022-08-05T12:21:50.200Z,19.95
2022-08-05T12:24:58.786Z,19.61
2022-08-05T12:28:06.949Z,19.21
2022-08-05T12:31:23.744Z,19.20
2022-08-05T12:34:23.486Z,19.13
2022-08-05T12:37:21.759Z,19.01
2022-08-05T12:40:30.434Z,19.15
2022-08-05T12:43:38.905Z,19.29
2022-08-05T12:46:47.096Z,19.24
2022-08-05T12:50:04.782Z,19.29
2022-08-05T12:52:54.296Z,19.11
2022-08-05T12:55:55.210Z,19.14
2022-08-05T12:59:06.827Z,19.28
2022-08-05T13:02:09.890Z,19.23
2022-08-05T13:05:17.984Z,19.18
2022-08-05T13:08:28.271Z,19.17
2022-08-05T13:12:02.751Z,19.11
2022-08-05T13:14:41.153Z,19.11
2022-08-05T13:17:50.587Z,19.18
2022-08-05T13:20:59.206Z,19.15
2022-08-05T13:24:08.775Z,19.23
2022-08-05T13:27:23.091Z,19.25
2022-08-05T13:30:34.757Z,19.13
2022-08-05T13:34:22.727Z,19.15
2022-08-05T13:36:33.389Z,19.42
2022-08-05T13:40:15.808Z,19.53
2022-08-05T13:42:47.108Z,19.43
2022-08-05T13:45:55.795Z,19.35
2022-08-05T13:49:04.702Z,19.29
2022-08-05T13:52:13.261Z,19.33
2022-08-05T13:55:41.125Z,19.32
2022-08-05T13:58:30.753Z,19.36
2022-08-05T14:01:36.405Z,19.47
2022-08-05T14:04:34.393Z,19.60
2022-08-05T14:08:00.276Z,19.83
2022-08-05T14:10:48.485Z,19.97
2022-08-05T14:13:57.801Z,19.95
2022-08-05T14:16:09.326Z,19.93
2022-08-05T14:18:30.467Z,19.84
2022-08-05T14:22:08.878Z,19.72
2022-08-05T14:24:45.261Z,19.75
2022-08-05T14:27:55.347Z,19.79
2022-08-05T14:31:03.393Z,19.87
2022-08-05T14:34:11.916Z,19.91
2022-08-05T14:37:08.781Z,20.02
2022-08-05T14:40:11.085Z,20.15
2022-08-05T14:43:11.533Z,20.06
2022-08-05T14:46:22.257Z,19.87
2022-08-05T14:49:56.424Z,19.87
2022-08-05T14:52:52.309Z,19.95
2022-08-05T14:55:42.471Z,20.00
2022-08-05T14:58:53.237Z,20.08
2022-08-05T15:02:01.329Z,20.27
2022-08-05T15:05:13.608Z,20.16
2022-08-05T15:08:37.994Z,20.28
2022-08-05T15:11:16.886Z,20.34
2022-08-05T15:14:34.750Z,20.30
2022-08-05T15:17:46.920Z,20.47
2022-08-05T15:20:36.187Z,20.51
2022-08-05T15:23:44.332Z,20.42
2022-08-05T15:26:53.366Z,20.31
2022-08-05T15:29:53.049Z,20.38
2022-08-05T15:32:54.621Z,20.49
2022-08-05T15:36:04.017Z,20.49
2022-08-05T15:40:41.396Z,20.50
2022-08-05T15:42:56.682Z,20.43
2022-08-05T15:45:38.197Z,20.23
2022-08-05T15:48:29.706Z,20.10
2022-08-05T15:52:10.083Z,20.05
2022-08-05T15:54:43.592Z,20.18
2022-08-05T15:57:52.140Z,20.20
2022-08-05T16:01:17.862Z,20.20
2022-08-05T16:04:06.184Z,20.31
2022-08-05T16:07:10.709Z,20.43
2022-08-05T16:10:11.504Z,20.56
2022-08-05T16:13:09.308Z,20.50
2022-08-05T16:16:21.266Z,20.43
2022-08-05T16:20:03.241Z,20.39
2022-08-05T16:22:34.290Z,20.38
2022-08-05T16:25:33.845Z,20.34
2022-08-05T16:28:42.876Z,20.34
2022-08-05T16:31:57.200Z,20.33
2022-08-05T16:34:56.604Z,20.31
2022-08-05T16:38:17.004Z,20.54
2022-08-05T16:42:11.975Z,20.76
2022-08-05T16:44:16.428Z,20.90
2022-08-05T16:47:28.908Z,21.11
2022-08-05T16:50:30.291Z,21.29
2022-08-05T16:54:02.907Z,21.34
2022-08-05T16:56:44.261Z,21.32
2022-08-05T17:00:03.018Z,21.29
2022-08-05T17:02:57.840Z,21.26
2022-08-05T17:06:05.512Z,21.13
2022-08-05T17:09:13.940Z,21.02
2022-08-05T17:12:50.540Z,20.96
2022-08-05T17:15:29.473Z,20.79
2022-08-05T17:18:33.770Z,20.66
2022-08-05T17:21:42.902Z,20.61
2022-08-05T17:24:57.957Z,20.58
2022-08-05T17:27:53.899Z,20.46
2022-08-05T17:31:08.300Z,20.31
2022-08-05T17:34:05.788Z,20.23
2022-08-05T17:37:40.340Z,20.23
2022-08-05T17:40:22.264Z,20.20
2022-08-05T17:43:50.378Z,20.16
2022-08-05T17:46:36.630Z,20.16
2022-08-05T17:49:59.738Z,20.13
2022-08-05T17:52:53.391Z,20.10
2022-08-05T17:55:52.704Z,20.15
2022-08-05T17:59:00.816Z,20.15
2022-08-05T18:02:11.113Z,20.20
2022-08-05T18:05:19.580Z,20.23
2022-08-05T18:08:27.369Z,20.23
2022-08-05T18:11:36.002Z,20.23
2022-08-05T18:14:44.715Z,20.16
2022-08-05T18:17:59.194Z,20.12
2022-08-05T18:20:58.794Z,20.02
2022-08-05T18:23:58.800Z,19.90
2022-08-05T18:27:06.815Z,19.78
2022-08-05T18:30:10.957Z,19.68
2022-08-05T18:33:22.642Z,19.69
2022-08-05T18:36:31.692Z,19.65
2022-08-05T18:40:31.024Z,19.60
2022-08-05T18:42:45.369Z,19.60
2022-08-05T18:45:54.283Z,19.57
2022-08-05T18:49:04.191Z,19.57
2022-08-05T18:52:14.983Z,19.57
2022-08-05T18:55:23.015Z,19.54
2022-08-05T18:58:31.245Z,19.50
2022-08-05T19:01:48.245Z,19.47
2022-08-05T19:05:01.710Z,19.42
2022-08-05T19:07:46.505Z,19.32
2022-08-05T19:10:55.251Z,19.17
2022-08-05T19:14:15.258Z,18.98
2022-08-05T19:17:09.660Z,18.76
2022-08-05T19:20:09.695Z,18.62
2022-08-05T19:23:22.564Z,18.49
2022-08-05T19:26:23.776Z,18.40
2022-08-05T19:29:36.057Z,18.34
2022-08-05T19:32:34.207Z,18.29
2022-08-05T19:35:56.653Z,18.22
2022-08-05T19:38:48.123Z,18.15
2022-08-05T19:42:05.784Z,18.07
2022-08-05T19:45:01.761Z,18.03
2022-08-05T19:48:14.697Z,17.95
2022-08-05T19:51:11.894Z,17.91
2022-08-05T19:54:26.667Z,17.84
2022-08-05T19:57:47.551Z,17.78
2022-08-05T20:00:28.435Z,17.71
2022-08-05T20:03:40.487Z,17.66
2022-08-05T20:06:46.486Z,17.55
2022-08-05T20:09:54.528Z,17.46
2022-08-05T20:12:49.997Z,17.43
2022-08-05T20:15:58.078Z,17.35
2022-08-05T20:19:07.954Z,17.33
2022-08-05T20:22:15.759Z,17.32
2022-08-05T20:25:24.795Z,17.25
2022-08-05T20:28:30.165Z,17.14
2022-08-05T20:31:52.240Z,17.07
2022-08-05T20:34:42.668Z,16.95
2022-08-05T20:38:07.958Z,16.88
2022-08-05T20:40:56.470Z,16.85
2022-08-05T20:44:19.328Z,16.77
2022-08-05T20:47:09.431Z,16.74
2022-08-05T20:50:18.639Z,16.73
2022-08-05T20:53:36.792Z,16.63
2022-08-05T20:56:40.200Z,16.56
2022-08-05T21:00:10.439Z,16.49
2022-08-05T21:02:51.584Z,16.48
2022-08-05T21:05:54.576Z,16.38
2022-08-05T21:08:53.659Z,16.31
2022-08-05T21:12:10.395Z,16.26
2022-08-05T21:15:11.303Z,16.14
2022-08-05T21:18:20.976Z,16.04
2022-08-05T21:21:24.389Z,15.99
2022-08-05T21:24:25.052Z,15.93
2022-08-05T21:27:38.628Z,15.86
2022-08-05T21:30:43.308Z,15.85
2022-08-05T21:33:53.227Z,15.76
2022-08-05T21:37:04.336Z,15.66
2022-08-05T21:40:16.610Z,15.49
2022-08-05T21:43:24.059Z,15.41
2022-08-05T21:46:22.886Z,15.21
2022-08-05T21:49:59.450Z,15.19
2022-08-05T21:52:31.999Z,15.11
2022-08-05T21:56:04.269Z,14.99
2022-08-05T21:58:42.238Z,14.86
2022-08-05T22:01:45.734Z,14.81
2022-08-05T22:04:53.814Z,14.75
2022-08-05T22:08:02.425Z,14.68
2022-08-05T22:11:10.815Z,14.64
2022-08-05T22:14:33.067Z,14.49
2022-08-05T22:17:17.600Z,14.42
2022-08-05T22:20:25.442Z,14.37
2022-08-05T22:24:02.979Z,14.35
2022-08-05T22:26:38.720Z,14.29
2022-08-05T22:29:46.821Z,14.20
2022-08-05T22:32:55.038Z,14.16
2022-08-05T22:36:03.301Z,14.12
2022-08-05T22:39:13.485Z,14.12
2022-08-05T22:42:26.213Z,14.02
2022-08-05T22:45:24.776Z,14.01
2022-08-05T22:48:32.919Z,13.87
2022-08-05T22:52:07.670Z,13.79
2022-08-05T22:54:48.946Z,13.74
2022-08-05T22:57:46.697Z,13.76
2022-08-05T23:00:57.046Z,13.73
2022-08-05T23:04:05.566Z,13.76
2022-08-05T23:07:15.271Z,13.76
2022-08-05T23:10:23.586Z,13.80
2022-08-05T23:13:32.258Z,13.76
2022-08-05T23:16:44.021Z,13.74
2022-08-05T23:19:56.224Z,13.63
2022-08-05T23:22:55.792Z,13.59
2022-08-05T23:26:03.954Z,13.49
2022-08-05T23:29:11.785Z,13.33
2022-08-05T23:32:13.106Z,13.40
2022-08-05T23:35:21.977Z,13.44
2022-08-05T23:38:29.899Z,13.38
2022-08-05T23:41:41.122Z,13.30
2022-08-05T23:44:43.227Z,13.25
2022-08-05T23:47:53.620Z,13.24
2022-08-05T23:50:55.659Z,13.25
2022-08-05T23:54:03.692Z,13.27
2022-08-05T23:57:11.707Z,13.32
